createdAt,value
2023-03-31T00:01:38.513Z,100.00
2023-03-31T00:04:05.456Z,100.00
2023-03-31T00:06:37.318Z,100.00
2023-03-31T00:09:06.430Z,100.00
2023-03-31T00:11:33.146Z,100.00
2023-03-31T00:13:59.543Z,100.00
2023-03-31T00:16:26.132Z,100.00
2023-03-31T00:18:52.688Z,100.00
2023-03-31T00:21:23.944Z,100.00
2023-03-31T00:23:55.346Z,100.00
2023-03-31T00:26:22.023Z,100.00
2023-03-31T00:28:52.023Z,100.00
2023-03-31T00:31:19.416Z,100.00
2023-03-31T00:33:46.334Z,100.00
2023-03-31T00:36:13.199Z,100.00
2023-03-31T00:38:39.645Z,100.00
2023-03-31T00:41:05.993Z,100.00
2023-03-31T00:43:36.423Z,100.00
2023-03-31T00:46:27.452Z,100.00
2023-03-31T00:48:57.135Z,100.00
2023-03-31T00:51:27.453Z,100.00
2023-03-31T00:53:58.420Z,100.00
2023-03-31T00:56:26.447Z,100.00
2023-03-31T00:58:53.733Z,100.00
2023-03-31T01:01:23.029Z,100.00
2023-03-31T01:03:49.561Z,100.00
2023-03-31T01:06:17.847Z,100.00
2023-03-31T01:08:44.789Z,100.00
2023-03-31T01:11:15.617Z,100.00
2023-03-31T01:13:42.333Z,100.00
2023-03-31T01:16:09.924Z,100.00
2023-03-31T01:18:36.895Z,100.00
2023-03-31T01:21:21.943Z,100.00
2023-03-31T01:24:14.737Z,100.00
2023-03-31T01:27:01.717Z,100.00
2023-03-31T01:29:59.175Z,100.00
2023-03-31T01:32:56.560Z,100.00
2023-03-31T01:35:54.263Z,100.00
2023-03-31T01:38:47.967Z,100.00
2023-03-31T01:41:33.038Z,100.00
2023-03-31T01:44:18.074Z,100.00
2023-03-31T01:46:58.228Z,100.00
2023-03-31T01:49:42.863Z,100.00
2023-03-31T01:52:18.871Z,100.00
2023-03-31T01:55:04.478Z,100.00
2023-03-31T01:57:35.949Z,100.00
2023-03-31T02:00:09.390Z,100.00
2023-03-31T02:02:40.096Z,100.00
2023-03-31T02:05:13.448Z,100.00
2023-03-31T02:07:53.722Z,100.00
2023-03-31T02:10:22.889Z,100.00
2023-03-31T02:12:51.159Z,100.00
2023-03-31T02:15:22.978Z,100.00
2023-03-31T02:17:53.609Z,100.00
2023-03-31T02:20:22.040Z,100.00
2023-03-31T02:22:53.489Z,100.00
2023-03-31T02:25:24.387Z,100.00
2023-03-31T02:27:53.907Z,100.00
2023-03-31T02:30:20.569Z,100.00
2023-03-31T02:32:47.214Z,100.00
2023-03-31T02:35:18.094Z,100.00
2023-03-31T02:37:45.057Z,100.00
2023-03-31T02:40:21.483Z,100.00
2023-03-31T02:42:48.916Z,100.00
2023-03-31T02:45:37.303Z,100.00
2023-03-31T02:48:05.668Z,100.00
2023-03-31T02:50:47.804Z,100.00
2023-03-31T02:53:35.454Z,100.00
2023-03-31T02:57:15.935Z,100.00
2023-03-31T03:00:00.487Z,100.00
2023-03-31T03:02:51.408Z,100.00
2023-03-31T03:05:36.610Z,100.00
2023-03-31T03:08:19.152Z,100.00
2023-03-31T03:11:08.377Z,100.00
2023-03-31T03:13:48.645Z,100.00
2023-03-31T03:16:29.162Z,100.00
2023-03-31T03:19:00.445Z,100.00
2023-03-31T03:21:27.692Z,100.00
2023-03-31T03:23:54.497Z,100.00
2023-03-31T03:26:21.283Z,100.00
2023-03-31T03:28:48.192Z,100.00
2023-03-31T03:31:15.006Z,100.00
2023-03-31T03:33:42.377Z,100.00
2023-03-31T03:36:09.196Z,100.00
2023-03-31T03:38:35.924Z,100.00
2023-03-31T03:41:02.751Z,100.00
2023-03-31T03:43:29.169Z,100.00
2023-03-31T03:45:55.873Z,100.00
2023-03-31T03:48:22.384Z,100.00
2023-03-31T03:50:48.816Z,100.00
2023-03-31T03:53:15.848Z,100.00
2023-03-31T03:55:42.384Z,100.00
2023-03-31T03:58:09.534Z,100.00
2023-03-31T04:00:38.150Z,100.00
2023-03-31T04:03:04.558Z,100.00
2023-03-31T04:05:31.132Z,100.00
2023-03-31T04:07:57.758Z,100.00
2023-03-31T04:10:24.201Z,100.00
2023-03-31T04:12:50.626Z,100.00
2023-03-31T04:15:17.092Z,100.00
2023-03-31T04:17:43.546Z,100.00
2023-03-31T04:20:10.725Z,100.00
2023-03-31T04:22:38.311Z,100.00
2023-03-31T04:25:05.334Z,100.00
2023-03-31T04:27:32.129Z,100.00
2023-03-31T04:29:58.484Z,100.00
2023-03-31T04:32:25.223Z,100.00
2023-03-31T04:34:51.973Z,100.00
2023-03-31T04:37:18.690Z,100.00
2023-03-31T04:39:45.134Z,100.00
2023-03-31T04:42:11.484Z,100.00
2023-03-31T04:44:37.901Z,100.00
2023-03-31T04:47:04.687Z,100.00
2023-03-31T04:49:31.429Z,100.00
2023-03-31T04:51:57.953Z,100.00
2023-03-31T04:54:24.486Z,100.00
2023-03-31T04:56:50.871Z,100.00
2023-03-31T04:59:17.298Z,100.00
2023-03-31T05:01:43.835Z,100.00
2023-03-31T05:04:10.539Z,100.00
2023-03-31T05:06:36.929Z,100.00
2023-03-31T05:09:03.477Z,100.00
2023-03-31T05:11:30.228Z,100.00
2023-03-31T05:13:56.611Z,100.00
2023-03-31T05:16:23.086Z,100.00
2023-03-31T05:18:49.588Z,100.00
2023-03-31T05:21:18.375Z,100.00
2023-03-31T05:23:46.974Z,100.00
2023-03-31T05:26:13.978Z,100.00
2023-03-31T05:28:41.728Z,100.00
2023-03-31T05:31:09.610Z,100.00
2023-03-31T05:33:36.213Z,100.00
2023-03-31T05:36:02.668Z,100.00
2023-03-31T05:38:29.137Z,100.00
2023-03-31T05:40:56.832Z,100.00
2023-03-31T05:43:23.427Z,100.00
2023-03-31T05:45:49.866Z,100.00
2023-03-31T05:48:16.283Z,100.00
2023-03-31T05:50:42.683Z,100.00
2023-03-31T05:53:09.271Z,100.00
2023-03-31T05:55:36.524Z,100.00
2023-03-31T05:58:02.970Z,100.00
2023-03-31T06:00:29.368Z,100.00
2023-03-31T06:02:55.853Z,100.00
2023-03-31T06:05:22.497Z,100.00
2023-03-31T06:07:48.854Z,100.00
2023-03-31T06:10:15.328Z,100.00
2023-03-31T06:12:41.832Z,100.00
2023-03-31T06:15:08.655Z,100.00
2023-03-31T06:17:36.838Z,100.00
2023-03-31T06:20:19.734Z,100.00
2023-03-31T06:22:52.917Z,100.00
2023-03-31T06:25:20.379Z,100.00
2023-03-31T06:27:46.921Z,100.00
2023-03-31T06:30:13.671Z,100.00
2023-03-31T06:32:40.996Z,100.00
2023-03-31T06:35:08.085Z,100.00
2023-03-31T06:37:34.675Z,100.00
2023-03-31T06:40:01.102Z,100.00
2023-03-31T06:42:27.608Z,100.00
2023-03-31T06:44:54.216Z,100.00
2023-03-31T06:47:20.653Z,100.00
2023-03-31T06:49:47.472Z,100.00
2023-03-31T06:52:13.885Z,100.00
2023-03-31T06:54:40.317Z,100.00
2023-03-31T06:57:06.814Z,100.00
2023-03-31T06:59:33.705Z,100.00
2023-03-31T07:02:00.380Z,100.00
2023-03-31T07:04:26.844Z,100.00
2023-03-31T07:06:53.491Z,100.00
2023-03-31T07:09:20.135Z,100.00
2023-03-31T07:11:46.876Z,100.00
2023-03-31T07:14:13.269Z,100.00
2023-03-31T07:16:39.799Z,100.00
2023-03-31T07:19:07.370Z,100.00
2023-03-31T07:21:34.107Z,100.00
2023-03-31T07:24:00.681Z,100.00
2023-03-31T07:26:27.102Z,100.00
2023-03-31T07:28:53.750Z,100.00
2023-03-31T07:31:21.255Z,100.00
2023-03-31T07:33:47.704Z,100.00
2023-03-31T07:36:14.451Z,100.00
2023-03-31T07:38:43.673Z,100.00
2023-03-31T07:41:13.141Z,100.00
2023-03-31T07:43:40.022Z,100.00
2023-03-31T07:46:07.102Z,100.00
2023-03-31T07:48:34.413Z,100.00
2023-03-31T07:51:00.879Z,100.00
2023-03-31T07:53:27.335Z,100.00
2023-03-31T07:55:53.773Z,100.00
2023-03-31T07:58:20.286Z,100.00
2023-03-31T08:00:46.666Z,100.00
2023-03-31T08:03:13.471Z,100.00
2023-03-31T08:05:39.937Z,100.00
2023-03-31T08:08:06.374Z,100.00
2023-03-31T08:10:32.829Z,100.00
2023-03-31T08:12:59.572Z,100.00
2023-03-31T08:15:26.089Z,100.00
2023-03-31T08:17:52.426Z,100.00
2023-03-31T08:20:19.091Z,100.00
2023-03-31T08:22:45.938Z,100.00
2023-03-31T08:25:12.459Z,100.00
2023-03-31T08:27:40.974Z,100.00
2023-03-31T08:30:13.370Z,100.00
2023-03-31T08:32:40.130Z,100.00
2023-03-31T08:35:07.494Z,100.00
2023-03-31T08:37:34.313Z,100.00
2023-03-31T08:40:00.718Z,100.00
2023-03-31T08:42:41.948Z,100.00
2023-03-31T08:45:23.170Z,100.00
2023-03-31T08:47:55.229Z,100.00
2023-03-31T08:50:27.727Z,100.00
2023-03-31T08:53:17.598Z,100.00
2023-03-31T08:55:49.370Z,100.00
2023-03-31T08:58:31.065Z,100.00
2023-03-31T09:01:21.808Z,100.00
2023-03-31T09:04:16.376Z,100.00
2023-03-31T09:07:11.273Z,100.00
2023-03-31T09:10:03.140Z,100.00
2023-03-31T09:12:49.547Z,100.00
2023-03-31T09:15:44.189Z,100.00
2023-03-31T09:18:32.490Z,100.00
2023-03-31T09:21:10.506Z,100.00
2023-03-31T09:23:43.848Z,100.00
2023-03-31T09:26:23.453Z,100.00
2023-03-31T09:28:53.084Z,100.00
2023-03-31T09:31:22.415Z,100.00
2023-03-31T09:33:53.216Z,100.00
2023-03-31T09:36:22.923Z,100.00
2023-03-31T09:38:50.381Z,100.00
2023-03-31T09:41:18.043Z,100.00
2023-03-31T09:43:49.155Z,100.00
2023-03-31T09:46:33.761Z,100.00
2023-03-31T09:49:07.009Z,100.00
2023-03-31T09:51:38.521Z,100.00
2023-03-31T09:54:19.838Z,100.00
2023-03-31T09:56:59.427Z,100.00
2023-03-31T09:59:36.215Z,100.00
2023-03-31T10:02:21.790Z,100.00
2023-03-31T10:04:53.214Z,100.00
2023-03-31T10:07:23.705Z,100.00
2023-03-31T10:09:52.077Z,100.00
2023-03-31T10:12:26.552Z,100.00
2023-03-31T10:15:02.218Z,100.00
2023-03-31T10:17:29.117Z,100.00
2023-03-31T10:20:00.276Z,97.13
2023-03-31T10:22:32.135Z,94.85
2023-03-31T10:25:16.973Z,94.56
2023-03-31T10:27:47.531Z,86.60
2023-03-31T10:30:22.041Z,88.58
2023-03-31T10:32:51.380Z,84.64
2023-03-31T10:35:27.760Z,78.90
2023-03-31T10:37:57.588Z,83.25
2023-03-31T10:40:32.066Z,78.17
2023-03-31T10:43:15.624Z,77.58
2023-03-31T10:45:49.482Z,71.07
2023-03-31T10:48:39.416Z,70.34
2023-03-31T10:51:27.582Z,66.16
2023-03-31T10:54:02.119Z,73.96
2023-03-31T10:56:48.275Z,70.39
2023-03-31T10:59:29.068Z,68.22
2023-03-31T11:04:49.258Z,67.03
2023-03-31T11:07:39.906Z,71.27
2023-03-31T11:10:25.178Z,71.38
2023-03-31T11:13:14.059Z,71.89
2023-03-31T11:15:58.353Z,71.85
2023-03-31T11:19:13.063Z,74.73
2023-03-31T11:22:04.069Z,72.13
2023-03-31T11:24:53.879Z,76.47
2023-03-31T11:27:26.951Z,85.21
2023-03-31T11:30:09.135Z,100.00
2023-03-31T11:32:47.140Z,100.00
2023-03-31T11:35:13.695Z,100.00
2023-03-31T11:37:52.778Z,100.00
2023-03-31T11:40:39.444Z,100.00
2023-03-31T11:43:30.533Z,100.00
2023-03-31T11:46:13.842Z,100.00
2023-03-31T11:48:53.001Z,100.00
2023-03-31T11:51:44.189Z,100.00
2023-03-31T11:54:20.475Z,100.00
2023-03-31T11:56:47.630Z,100.00
2023-03-31T11:59:18.334Z,100.00
2023-03-31T12:01:47.800Z,100.00
2023-03-31T12:04:35.473Z,100.00
2023-03-31T12:07:35.025Z,100.00
2023-03-31T12:10:48.272Z,100.00
2023-03-31T12:13:33.204Z,100.00
2023-03-31T12:16:05.796Z,100.00
2023-03-31T12:19:04.758Z,100.00
2023-03-31T12:21:33.308Z,100.00
2023-03-31T12:23:59.839Z,100.00
2023-03-31T12:26:40.430Z,100.00
2023-03-31T12:29:34.593Z,100.00
2023-03-31T12:32:10.060Z,100.00
2023-03-31T12:34:44.027Z,100.00
2023-03-31T12:37:35.983Z,100.00
2023-03-31T12:40:29.628Z,100.00
2023-03-31T12:43:21.908Z,100.00
2023-03-31T12:45:54.732Z,100.00
2023-03-31T12:48:54.124Z,100.00
2023-03-31T12:51:43.549Z,100.00
2023-03-31T12:54:47.190Z,100.00
2023-03-31T12:57:19.521Z,100.00
2023-03-31T12:59:46.695Z,100.00
2023-03-31T13:02:16.297Z,100.00
2023-03-31T13:04:44.215Z,100.00
2023-03-31T13:07:39.402Z,100.00
2023-03-31T13:10:27.471Z,100.00
2023-03-31T13:13:13.418Z,100.00
2023-03-31T13:15:40.215Z,100.00
2023-03-31T13:18:08.428Z,100.00
2023-03-31T13:20:38.268Z,100.00
2023-03-31T13:23:14.680Z,100.00
2023-03-31T13:25:48.214Z,100.00
2023-03-31T13:28:38.500Z,100.00
2023-03-31T13:31:12.813Z,100.00
2023-03-31T13:33:51.426Z,100.00
2023-03-31T13:36:18.044Z,100.00
2023-03-31T13:39:05.385Z,100.00
2023-03-31T13:41:53.130Z,100.00
2023-03-31T13:44:49.576Z,100.00
2023-03-31T13:47:41.036Z,100.00
2023-03-31T13:50:35.393Z,100.00
2023-03-31T13:53:13.168Z,100.00
2023-03-31T13:55:58.309Z,100.00
2023-03-31T13:58:43.064Z,100.00
2023-03-31T14:01:28.020Z,100.00
2023-03-31T14:04:43.595Z,100.00
2023-03-31T14:07:22.949Z,100.00
2023-03-31T14:09:52.718Z,100.00
2023-03-31T14:12:38.461Z,100.00
2023-03-31T14:15:06.879Z,100.00
2023-03-31T14:17:37.554Z,100.00
2023-03-31T14:20:15.557Z,100.00
2023-03-31T14:22:45.339Z,100.00
2023-03-31T14:25:38.752Z,100.00
2023-03-31T14:28:08.021Z,100.00
2023-03-31T14:30:53.676Z,100.00
2023-03-31T14:33:32.243Z,100.00
2023-03-31T14:36:20.634Z,100.00
2023-03-31T14:38:47.379Z,100.00
2023-03-31T14:41:22.624Z,100.00
2023-03-31T14:43:51.394Z,100.00
2023-03-31T14:46:22.266Z,100.00
2023-03-31T14:48:50.038Z,100.00
2023-03-31T14:51:30.540Z,100.00
2023-03-31T14:54:01.693Z,100.00
2023-03-31T14:56:38.085Z,100.00
2023-03-31T14:59:07.114Z,100.00
2023-03-31T15:01:35.608Z,100.00
2023-03-31T15:04:10.017Z,100.00
2023-03-31T15:06:36.820Z,100.00
2023-03-31T15:09:04.155Z,100.00
2023-03-31T15:11:31.429Z,100.00
2023-03-31T15:14:05.197Z,100.00
2023-03-31T15:16:43.553Z,100.00
2023-03-31T15:19:17.820Z,100.00
2023-03-31T15:21:45.404Z,100.00
2023-03-31T15:24:16.878Z,100.00
2023-03-31T15:26:56.425Z,100.00
2023-03-31T15:29:34.103Z,100.00
2023-03-31T15:32:00.721Z,100.00
2023-03-31T15:34:32.759Z,100.00
2023-03-31T15:37:00.574Z,100.00
2023-03-31T15:39:31.300Z,100.00
2023-03-31T15:41:59.247Z,100.00
2023-03-31T15:44:38.465Z,100.00
2023-03-31T15:47:18.372Z,100.00
2023-03-31T15:49:54.742Z,100.00
2023-03-31T15:52:26.770Z,100.00
2023-03-31T15:54:53.517Z,100.00
2023-03-31T15:57:20.095Z,100.00
2023-03-31T15:59:56.094Z,100.00
2023-03-31T16:02:45.004Z,100.00
2023-03-31T16:05:54.340Z,100.00
2023-03-31T16:08:30.964Z,100.00
2023-03-31T16:11:20.277Z,100.00
2023-03-31T16:13:52.386Z,100.00
2023-03-31T16:16:23.223Z,100.00
2023-03-31T16:18:51.161Z,100.00
2023-03-31T16:21:26.612Z,100.00
2023-03-31T16:23:57.563Z,100.00
2023-03-31T16:26:27.642Z,100.00
2023-03-31T16:28:56.051Z,100.00
2023-03-31T16:31:30.310Z,100.00
2023-03-31T16:33:57.586Z,100.00
2023-03-31T16:36:23.990Z,100.00
2023-03-31T16:38:54.431Z,100.00
2023-03-31T16:41:22.885Z,100.00
2023-03-31T16:43:49.726Z,100.00
2023-03-31T16:46:16.573Z,100.00
2023-03-31T16:48:43.043Z,100.00
2023-03-31T16:51:11.338Z,100.00
2023-03-31T16:53:37.868Z,100.00
2023-03-31T16:56:05.743Z,100.00
2023-03-31T16:58:32.130Z,100.00
2023-03-31T17:00:58.911Z,100.00
2023-03-31T17:03:27.453Z,100.00
2023-03-31T17:05:59.029Z,100.00
2023-03-31T17:08:27.120Z,100.00
2023-03-31T17:11:01.008Z,100.00
2023-03-31T17:13:28.541Z,100.00
2023-03-31T17:16:04.731Z,100.00
2023-03-31T17:18:42.313Z,100.00
2023-03-31T17:21:11.647Z,100.00
2023-03-31T17:23:38.534Z,100.00
2023-03-31T17:26:06.772Z,100.00
2023-03-31T17:28:33.741Z,100.00
2023-03-31T17:31:00.129Z,100.00
2023-03-31T17:33:26.624Z,100.00
2023-03-31T17:35:57.671Z,100.00
2023-03-31T17:38:25.650Z,100.00
2023-03-31T17:40:52.573Z,100.00
2023-03-31T17:43:18.967Z,100.00
2023-03-31T17:45:45.344Z,100.00
2023-03-31T17:48:11.721Z,100.00
2023-03-31T17:50:38.390Z,100.00
2023-03-31T17:53:04.930Z,100.00
2023-03-31T17:55:31.283Z,100.00
2023-03-31T17:57:57.620Z,100.00
2023-03-31T18:00:23.970Z,100.00
2023-03-31T18:02:50.365Z,100.00
2023-03-31T18:05:18.285Z,100.00
2023-03-31T18:07:44.963Z,100.00
2023-03-31T18:10:11.509Z,100.00
2023-03-31T18:12:38.282Z,100.00
2023-03-31T18:15:06.146Z,100.00
2023-03-31T18:17:33.664Z,100.00
2023-03-31T18:20:00.050Z,100.00
2023-03-31T18:22:26.532Z,100.00
2023-03-31T18:24:53.020Z,100.00
2023-03-31T18:27:20.620Z,100.00
2023-03-31T18:29:48.097Z,100.00
2023-03-31T18:32:14.938Z,100.00
2023-03-31T18:34:41.738Z,100.00
2023-03-31T18:37:08.505Z,100.00
2023-03-31T18:39:35.165Z,100.00
2023-03-31T18:42:01.655Z,100.00
2023-03-31T18:44:29.097Z,100.00
2023-03-31T18:46:56.356Z,100.00
2023-03-31T18:49:23.012Z,100.00
2023-03-31T18:51:49.568Z,100.00
2023-03-31T18:54:15.992Z,100.00
2023-03-31T18:56:43.026Z,100.00
2023-03-31T18:59:09.382Z,100.00
2023-03-31T19:01:35.834Z,100.00
2023-03-31T19:04:02.271Z,100.00
2023-03-31T19:06:28.740Z,100.00
2023-03-31T19:08:56.487Z,100.00
2023-03-31T19:11:23.257Z,100.00
2023-03-31T19:13:50.152Z,100.00
2023-03-31T19:16:16.683Z,100.00
2023-03-31T19:18:43.214Z,100.00
2023-03-31T19:21:10.481Z,100.00
2023-03-31T19:23:37.225Z,100.00
2023-03-31T19:26:03.825Z,100.00
2023-03-31T19:28:31.593Z,100.00
2023-03-31T19:31:04.257Z,100.00
2023-03-31T19:33:30.750Z,100.00
2023-03-31T19:35:57.195Z,100.00
2023-03-31T19:38:24.054Z,100.00
2023-03-31T19:40:50.506Z,100.00
2023-03-31T19:43:20.260Z,100.00
2023-03-31T19:45:51.672Z,100.00
2023-03-31T19:48:18.140Z,100.00
2023-03-31T19:50:59.411Z,100.00
2023-03-31T19:53:27.266Z,100.00
2023-03-31T19:56:10.522Z,100.00
2023-03-31T19:58:37.443Z,100.00
2023-03-31T20:01:06.560Z,100.00
2023-03-31T20:03:33.323Z,100.00
2023-03-31T20:06:08.951Z,100.00
2023-03-31T20:08:36.656Z,100.00
2023-03-31T20:11:05.928Z,100.00
2023-03-31T20:13:33.276Z,100.00
2023-03-31T20:16:01.850Z,100.00
2023-03-31T20:18:29.230Z,100.00
2023-03-31T20:21:13.112Z,100.00
2023-03-31T20:23:41.136Z,100.00
2023-03-31T20:26:09.706Z,100.00
2023-03-31T20:28:37.887Z,100.00
2023-03-31T20:31:14.040Z,100.00
2023-03-31T20:33:41.350Z,100.00
2023-03-31T20:36:10.495Z,100.00
2023-03-31T20:38:38.699Z,100.00
2023-03-31T20:41:05.710Z,100.00
2023-03-31T20:43:32.502Z,100.00
2023-03-31T20:46:00.853Z,100.00
2023-03-31T20:48:27.282Z,100.00
2023-03-31T20:50:53.707Z,100.00
2023-03-31T20:53:20.267Z,100.00
2023-03-31T20:55:46.634Z,100.00
2023-03-31T20:58:13.130Z,100.00
2023-03-31T21:00:39.595Z,100.00
2023-03-31T21:03:06.184Z,100.00
2023-03-31T21:05:33.284Z,100.00
2023-03-31T21:07:59.802Z,100.00
2023-03-31T21:10:26.184Z,100.00
2023-03-31T21:12:52.734Z,100.00
2023-03-31T21:15:19.170Z,100.00
2023-03-31T21:17:45.664Z,100.00
2023-03-31T21:20:12.131Z,100.00
2023-03-31T21:22:38.629Z,100.00
2023-03-31T21:25:05.853Z,100.00
2023-03-31T21:27:32.550Z,100.00
2023-03-31T21:29:58.989Z,100.00
2023-03-31T21:32:28.520Z,100.00
2023-03-31T21:34:55.196Z,100.00
2023-03-31T21:37:21.547Z,100.00
2023-03-31T21:39:47.928Z,100.00
2023-03-31T21:42:14.232Z,100.00
2023-03-31T21:44:40.643Z,100.00
2023-03-31T21:47:07.561Z,100.00
2023-03-31T21:49:33.917Z,100.00
2023-03-31T21:52:00.269Z,100.00
2023-03-31T21:54:26.665Z,100.00
2023-03-31T21:56:53.096Z,100.00
2023-03-31T21:59:19.840Z,100.00
2023-03-31T22:01:46.302Z,100.00
2023-03-31T22:04:12.835Z,100.00
2023-03-31T22:06:39.338Z,100.00
2023-03-31T22:09:05.807Z,100.00
2023-03-31T22:11:32.454Z,100.00
2023-03-31T22:13:58.975Z,100.00
2023-03-31T22:16:25.620Z,100.00
2023-03-31T22:18:53.932Z,100.00
2023-03-31T22:21:27.567Z,100.00
2023-03-31T22:23:56.690Z,100.00
2023-03-31T22:26:24.055Z,100.00
2023-03-31T22:28:50.782Z,100.00
2023-03-31T22:31:18.058Z,100.00
2023-03-31T22:33:45.367Z,100.00
2023-03-31T22:36:11.845Z,100.00
2023-03-31T22:38:38.348Z,100.00
2023-03-31T22:41:04.977Z,100.00
2023-03-31T22:43:32.413Z,100.00
2023-03-31T22:46:03.647Z,100.00
2023-03-31T22:48:30.061Z,100.00
2023-03-31T22:50:56.408Z,100.00
2023-03-31T22:53:22.844Z,100.00
2023-03-31T22:55:53.867Z,100.00
2023-03-31T22:58:21.011Z,100.00
2023-03-31T23:00:55.039Z,100.00
2023-03-31T23:03:21.509Z,100.00
2023-03-31T23:05:47.823Z,100.00
2023-03-31T23:08:14.228Z,100.00
2023-03-31T23:10:40.596Z,100.00
2023-03-31T23:13:06.991Z,100.00
2023-03-31T23:15:36.494Z,100.00
2023-03-31T23:18:02.906Z,100.00
2023-03-31T23:20:29.340Z,100.00
2023-03-31T23:22:55.834Z,100.00
2023-03-31T23:25:22.210Z,100.00
2023-03-31T23:27:48.601Z,100.00
2023-03-31T23:30:15.294Z,100.00
2023-03-31T23:32:41.828Z,100.00
2023-03-31T23:35:08.524Z,100.00
2023-03-31T23:37:34.939Z,100.00
2023-03-31T23:40:01.266Z,100.00
2023-03-31T23:42:27.809Z,100.00
2023-03-31T23:44:54.185Z,100.00
2023-03-31T23:47:20.608Z,100.00
2023-03-31T23:49:47.095Z,100.00
2023-03-31T23:52:13.463Z,100.00
2023-03-31T23:54:39.855Z,100.00
2023-03-31T23:57:06.309Z,100.00
2023-03-31T23:59:32.659Z,100.00
